sensor_id;sensor_type;location;lat;lon;timestamp;pressure;altitude;pressure_sealevel;temperature;humidity
3748;BME280;1889;50.058;8.688;2022-07-30T00:00:10;100270.02;;;21.27;70.58
3748;BME280;1889;50.058;8.688;2022-07-30T00:02:39;100266.40;;;21.35;70.25
3748;BME280;1889;50.058;8.688;2022-07-30T00:05:09;100259.72;;;21.42;69.87
3748;BME280;1889;50.058;8.688;2022-07-30T00:07:38;100261.99;;;21.34;70.25
3748;BME280;1889;50.058;8.688;2022-07-30T00:10:07;100256.38;;;21.39;70.00
3748;BME280;1889;50.058;8.688;2022-07-30T00:12:36;100248.44;;;21.44;69.69
3748;BME280;1889;50.058;8.688;2022-07-30T00:15:06;100252.94;;;21.51;69.46
3748;BME280;1889;50.058;8.688;2022-07-30T00:17:36;100247.33;;;21.55;69.35
3748;BME280;1889;50.058;8.688;2022-07-30T00:20:05;100249.14;;;21.55;69.26
3748;BME280;1889;50.058;8.688;2022-07-30T00:22:34;100245.39;;;21.57;69.21
3748;BME280;1889;50.058;8.688;2022-07-30T00:25:03;100238.91;;;21.54;69.21
3748;BME280;1889;50.058;8.688;2022-07-30T00:27:32;100238.04;;;21.54;69.21
3748;BME280;1889;50.058;8.688;2022-07-30T00:30:03;100238.59;;;21.52;69.24
3748;BME280;1889;50.058;8.688;2022-07-30T00:32:32;100228.92;;;21.49;69.15
3748;BME280;1889;50.058;8.688;2022-07-30T00:35:01;100224.91;;;21.49;69.11
3748;BME280;1889;50.058;8.688;2022-07-30T00:37:30;100230.47;;;21.46;69.06
3748;BME280;1889;50.058;8.688;2022-07-30T00:39:59;100236.69;;;21.40;69.18
3748;BME280;1889;50.058;8.688;2022-07-30T00:42:38;100239.84;;;21.39;69.09
3748;BME280;1889;50.058;8.688;2022-07-30T00:45:09;100238.83;;;21.26;69.68
3748;BME280;1889;50.058;8.688;2022-07-30T00:47:38;100238.12;;;21.15;69.98
3748;BME280;1889;50.058;8.688;2022-07-30T00:50:09;100240.02;;;21.13;69.89
3748;BME280;1889;50.058;8.688;2022-07-30T00:52:39;100237.03;;;21.11;69.78
3748;BME280;1889;50.058;8.688;2022-07-30T00:55:10;100235.27;;;21.18;69.38
3748;BME280;1889;50.058;8.688;2022-07-30T00:57:41;100230.87;;;21.17;69.37
3748;BME280;1889;50.058;8.688;2022-07-30T01:00:13;100229.27;;;21.22;69.24
3748;BME280;1889;50.058;8.688;2022-07-30T01:02:42;100223.36;;;21.24;69.12
3748;BME280;1889;50.058;8.688;2022-07-30T01:05:12;100223.23;;;21.18;69.17
3748;BME280;1889;50.058;8.688;2022-07-30T01:07:42;100218.39;;;21.16;69.16
3748;BME280;1889;50.058;8.688;2022-07-30T01:10:12;100215.19;;;21.18;68.93
3748;BME280;1889;50.058;8.688;2022-07-30T01:12:42;100208.72;;;21.22;68.63
3748;BME280;1889;50.058;8.688;2022-07-30T01:15:12;100213.98;;;21.24;68.47
3748;BME280;1889;50.058;8.688;2022-07-30T01:17:41;100207.25;;;21.17;68.64
3748;BME280;1889;50.058;8.688;2022-07-30T01:20:21;100213.94;;;21.17;68.72
3748;BME280;1889;50.058;8.688;2022-07-30T01:23:07;100218.09;;;21.22;68.57
3748;BME280;1889;50.058;8.688;2022-07-30T01:25:55;100207.89;;;21.13;68.80
3748;BME280;1889;50.058;8.688;2022-07-30T01:28:34;100210.88;;;21.16;68.66
3748;BME280;1889;50.058;8.688;2022-07-30T01:31:03;100208.59;;;21.17;68.54
3748;BME280;1889;50.058;8.688;2022-07-30T01:33:36;100205.52;;;21.16;68.48
3748;BME280;1889;50.058;8.688;2022-07-30T01:36:08;100200.95;;;21.18;68.36
3748;BME280;1889;50.058;8.688;2022-07-30T01:38:40;100206.81;;;21.09;68.58
3748;BME280;1889;50.058;8.688;2022-07-30T01:41:10;100212.92;;;21.04;68.67
3748;BME280;1889;50.058;8.688;2022-07-30T01:43:40;100221.33;;;20.98;68.79
3748;BME280;1889;50.058;8.688;2022-07-30T01:46:11;100220.83;;;20.91;68.98
3748;BME280;1889;50.058;8.688;2022-07-30T01:48:43;100222.88;;;20.79;69.27
3748;BME280;1889;50.058;8.688;2022-07-30T01:51:13;100223.87;;;20.69;69.69
3748;BME280;1889;50.058;8.688;2022-07-30T01:53:44;100226.27;;;20.67;69.73
3748;BME280;1889;50.058;8.688;2022-07-30T01:56:14;100231.81;;;20.71;69.55
3748;BME280;1889;50.058;8.688;2022-07-30T01:58:46;100230.78;;;20.73;69.38
3748;BME280;1889;50.058;8.688;2022-07-30T02:01:16;100233.63;;;20.70;69.36
3748;BME280;1889;50.058;8.688;2022-07-30T02:03:45;100236.58;;;20.66;69.43
3748;BME280;1889;50.058;8.688;2022-07-30T02:06:20;100240.36;;;20.62;69.41
3748;BME280;1889;50.058;8.688;2022-07-30T02:08:57;100237.27;;;20.53;69.58
3748;BME280;1889;50.058;8.688;2022-07-30T02:11:27;100242.34;;;20.51;69.61
3748;BME280;1889;50.058;8.688;2022-07-30T02:14:20;100241.20;;;20.55;69.36
3748;BME280;1889;50.058;8.688;2022-07-30T02:16:52;100243.70;;;20.58;69.17
3748;BME280;1889;50.058;8.688;2022-07-30T02:19:23;100260.98;;;20.44;69.63
3748;BME280;1889;50.058;8.688;2022-07-30T02:21:57;100263.81;;;20.34;69.96
3748;BME280;1889;50.058;8.688;2022-07-30T02:24:27;100256.38;;;20.39;69.61
3748;BME280;1889;50.058;8.688;2022-07-30T02:27:00;100261.65;;;20.40;69.28
3748;BME280;1889;50.058;8.688;2022-07-30T02:29:30;100264.32;;;20.40;69.25
3748;BME280;1889;50.058;8.688;2022-07-30T02:32:09;100263.38;;;20.41;69.25
3748;BME280;1889;50.058;8.688;2022-07-30T02:34:35;100263.77;;;20.42;69.15
3748;BME280;1889;50.058;8.688;2022-07-30T02:37:07;100269.20;;;20.41;69.05
3748;BME280;1889;50.058;8.688;2022-07-30T02:39:37;100261.65;;;20.40;68.95
3748;BME280;1889;50.058;8.688;2022-07-30T02:42:08;100263.22;;;20.36;69.05
3748;BME280;1889;50.058;8.688;2022-07-30T02:44:40;100257.72;;;20.39;68.96
3748;BME280;1889;50.058;8.688;2022-07-30T02:47:11;100269.55;;;20.35;68.94
3748;BME280;1889;50.058;8.688;2022-07-30T02:49:43;100271.01;;;20.32;69.01
3748;BME280;1889;50.058;8.688;2022-07-30T02:52:15;100268.69;;;20.34;68.94
3748;BME280;1889;50.058;8.688;2022-07-30T02:54:47;100279.73;;;20.35;68.84
3748;BME280;1889;50.058;8.688;2022-07-30T02:57:19;100279.84;;;20.34;68.86
3748;BME280;1889;50.058;8.688;2022-07-30T02:59:50;100278.40;;;20.35;68.70
3748;BME280;1889;50.058;8.688;2022-07-30T03:02:22;100277.22;;;20.32;68.70
3748;BME280;1889;50.058;8.688;2022-07-30T03:04:52;100275.56;;;20.30;68.72
3748;BME280;1889;50.058;8.688;2022-07-30T03:07:22;100276.83;;;20.31;68.62
3748;BME280;1889;50.058;8.688;2022-07-30T03:09:54;100280.31;;;20.25;68.75
3748;BME280;1889;50.058;8.688;2022-07-30T03:12:25;100281.49;;;20.19;68.65
3748;BME280;1889;50.058;8.688;2022-07-30T03:14:56;100283.88;;;20.16;68.77
3748;BME280;1889;50.058;8.688;2022-07-30T03:17:27;100283.96;;;20.15;68.72
3748;BME280;1889;50.058;8.688;2022-07-30T03:19:59;100283.81;;;20.18;68.53
3748;BME280;1889;50.058;8.688;2022-07-30T03:22:29;100284.75;;;20.17;68.57
3748;BME280;1889;50.058;8.688;2022-07-30T03:25:00;100287.45;;;20.08;68.68
3748;BME280;1889;50.058;8.688;2022-07-30T03:27:30;100280.58;;;20.11;68.46
3748;BME280;1889;50.058;8.688;2022-07-30T03:30:01;100284.83;;;20.15;68.34
3748;BME280;1889;50.058;8.688;2022-07-30T03:32:31;100285.84;;;20.13;68.29
3748;BME280;1889;50.058;8.688;2022-07-30T03:35:01;100292.87;;;20.07;68.44
3748;BME280;1889;50.058;8.688;2022-07-30T03:37:31;100297.30;;;19.99;68.60
3748;BME280;1889;50.058;8.688;2022-07-30T03:40:00;100296.64;;;20.03;68.50
3748;BME280;1889;50.058;8.688;2022-07-30T03:42:31;100300.02;;;20.06;68.42
3748;BME280;1889;50.058;8.688;2022-07-30T03:45:03;100303.02;;;20.09;68.43
3748;BME280;1889;50.058;8.688;2022-07-30T03:47:35;100304.42;;;20.07;68.33
3748;BME280;1889;50.058;8.688;2022-07-30T03:50:05;100300.09;;;20.05;68.40
3748;BME280;1889;50.058;8.688;2022-07-30T03:52:37;100298.61;;;20.08;68.16
3748;BME280;1889;50.058;8.688;2022-07-30T03:55:08;100305.91;;;20.04;68.22
3748;BME280;1889;50.058;8.688;2022-07-30T03:57:38;100306.38;;;20.04;68.19
3748;BME280;1889;50.058;8.688;2022-07-30T04:00:12;100311.11;;;20.07;67.96
3748;BME280;1889;50.058;8.688;2022-07-30T04:02:42;100308.11;;;20.05;67.95
3748;BME280;1889;50.058;8.688;2022-07-30T04:05:13;100304.52;;;19.97;68.17
3748;BME280;1889;50.058;8.688;2022-07-30T04:07:42;100303.37;;;19.94;68.17
3748;BME280;1889;50.058;8.688;2022-07-30T04:10:12;100309.55;;;19.95;68.12
3748;BME280;1889;50.058;8.688;2022-07-30T04:12:42;100317.09;;;19.95;68.01
3748;BME280;1889;50.058;8.688;2022-07-30T04:15:11;100314.27;;;19.98;67.82
3748;BME280;1889;50.058;8.688;2022-07-30T04:17:48;100315.07;;;19.92;67.94
3748;BME280;1889;50.058;8.688;2022-07-30T04:20:29;100315.07;;;19.92;67.94
3748;BME280;1889;50.058;8.688;2022-07-30T04:23:00;100318.14;;;19.93;67.75
3748;BME280;1889;50.058;8.688;2022-07-30T04:25:31;100317.81;;;19.90;67.79
3748;BME280;1889;50.058;8.688;2022-07-30T04:28:02;100321.37;;;19.82;67.88
3748;BME280;1889;50.058;8.688;2022-07-30T04:30:32;100319.95;;;19.84;67.73
3748;BME280;1889;50.058;8.688;2022-07-30T04:33:05;100319.63;;;19.81;67.79
3748;BME280;1889;50.058;8.688;2022-07-30T04:35:35;100322.70;;;19.73;68.03
3748;BME280;1889;50.058;8.688;2022-07-30T04:38:04;100329.64;;;19.69;68.14
3748;BME280;1889;50.058;8.688;2022-07-30T04:40:34;100333.07;;;19.71;68.08
3748;BME280;1889;50.058;8.688;2022-07-30T04:43:04;100335.13;;;19.66;68.21
3748;BME280;1889;50.058;8.688;2022-07-30T04:45:33;100341.09;;;19.62;68.25
3748;BME280;1889;50.058;8.688;2022-07-30T04:48:02;100349.74;;;19.67;68.14
3748;BME280;1889;50.058;8.688;2022-07-30T04:50:33;100348.87;;;19.75;67.87
3748;BME280;1889;50.058;8.688;2022-07-30T04:53:04;100357.58;;;19.79;67.86
3748;BME280;1889;50.058;8.688;2022-07-30T04:55:34;100355.70;;;19.81;68.00
3748;BME280;1889;50.058;8.688;2022-07-30T04:58:05;100351.76;;;19.88;67.76
3748;BME280;1889;50.058;8.688;2022-07-30T05:00:35;100357.75;;;19.93;67.71
3748;BME280;1889;50.058;8.688;2022-07-30T05:03:07;100361.83;;;19.92;67.82
3748;BME280;1889;50.058;8.688;2022-07-30T05:05:39;100361.44;;;19.82;68.18
3748;BME280;1889;50.058;8.688;2022-07-30T05:08:08;100358.08;;;19.70;68.42
3748;BME280;1889;50.058;8.688;2022-07-30T05:10:37;100364.44;;;19.76;68.48
3748;BME280;1889;50.058;8.688;2022-07-30T05:13:13;100364.44;;;19.76;68.48
3748;BME280;1889;50.058;8.688;2022-07-30T05:15:43;100368.27;;;19.79;68.59
3748;BME280;1889;50.058;8.688;2022-07-30T05:18:12;100363.78;;;19.79;68.96
3748;BME280;1889;50.058;8.688;2022-07-30T05:20:41;100363.78;;;19.79;68.96
3748;BME280;1889;50.058;8.688;2022-07-30T05:23:10;100369.13;;;19.71;69.75
3748;BME280;1889;50.058;8.688;2022-07-30T05:25:39;100369.13;;;19.71;69.75
3748;BME280;1889;50.058;8.688;2022-07-30T05:28:09;100368.58;;;19.64;70.27
3748;BME280;1889;50.058;8.688;2022-07-30T05:30:38;100370.46;;;19.71;70.43
3748;BME280;1889;50.058;8.688;2022-07-30T05:33:07;100378.58;;;19.69;70.66
3748;BME280;1889;50.058;8.688;2022-07-30T05:35:36;100373.23;;;19.78;70.46
3748;BME280;1889;50.058;8.688;2022-07-30T05:38:06;100377.61;;;19.88;70.23
3748;BME280;1889;50.058;8.688;2022-07-30T05:40:35;100374.63;;;20.02;69.87
3748;BME280;1889;50.058;8.688;2022-07-30T05:43:04;100381.40;;;19.84;70.79
3748;BME280;1889;50.058;8.688;2022-07-30T05:45:33;100376.67;;;19.71;72.51
3748;BME280;1889;50.058;8.688;2022-07-30T05:48:03;100376.67;;;19.71;72.51
3748;BME280;1889;50.058;8.688;2022-07-30T05:50:32;100378.86;;;20.06;71.21
3748;BME280;1889;50.058;8.688;2022-07-30T05:53:01;100374.69;;;20.18;71.06
3748;BME280;1889;50.058;8.688;2022-07-30T05:55:30;100371.20;;;20.42;70.98
3748;BME280;1889;50.058;8.688;2022-07-30T05:57:59;100371.20;;;20.42;70.98
3748;BME280;1889;50.058;8.688;2022-07-30T06:00:32;100379.08;;;20.76;70.11
3748;BME280;1889;50.058;8.688;2022-07-30T06:03:02;100383.05;;;20.85;70.03
3748;BME280;1889;50.058;8.688;2022-07-30T06:05:32;100383.05;;;20.85;70.03
3748;BME280;1889;50.058;8.688;2022-07-30T06:08:01;100385.17;;;21.03;69.55
3748;BME280;1889;50.058;8.688;2022-07-30T06:10:30;100381.98;;;21.12;69.25
3748;BME280;1889;50.058;8.688;2022-07-30T06:12:59;100381.98;;;21.12;69.25
3748;BME280;1889;50.058;8.688;2022-07-30T06:15:28;100379.93;;;21.17;68.88
3748;BME280;1889;50.058;8.688;2022-07-30T06:17:59;100383.24;;;21.13;68.47
3748;BME280;1889;50.058;8.688;2022-07-30T06:20:28;100387.30;;;21.36;68.06
3748;BME280;1889;50.058;8.688;2022-07-30T06:22:57;100391.18;;;21.46;67.67
3748;BME280;1889;50.058;8.688;2022-07-30T06:25:27;100388.69;;;21.50;66.99
3748;BME280;1889;50.058;8.688;2022-07-30T06:27:56;100388.69;;;21.50;66.99
3748;BME280;1889;50.058;8.688;2022-07-30T06:30:25;100385.15;;;21.50;65.85
3748;BME280;1889;50.058;8.688;2022-07-30T06:32:56;100387.14;;;21.69;65.78
3748;BME280;1889;50.058;8.688;2022-07-30T06:35:25;100382.27;;;21.76;65.83
3748;BME280;1889;50.058;8.688;2022-07-30T06:37:54;100382.27;;;21.76;65.83
3748;BME280;1889;50.058;8.688;2022-07-30T06:40:23;100383.61;;;21.76;65.11
3748;BME280;1889;50.058;8.688;2022-07-30T06:42:52;100384.88;;;21.84;64.71
3748;BME280;1889;50.058;8.688;2022-07-30T06:45:21;100379.77;;;21.43;65.01
3748;BME280;1889;50.058;8.688;2022-07-30T06:47:50;100385.09;;;21.58;64.83
3748;BME280;1889;50.058;8.688;2022-07-30T06:50:19;100384.88;;;21.84;64.10
3748;BME280;1889;50.058;8.688;2022-07-30T06:52:48;100388.57;;;21.97;63.92
3748;BME280;1889;50.058;8.688;2022-07-30T06:55:17;100387.45;;;22.08;63.78
3748;BME280;1889;50.058;8.688;2022-07-30T06:57:46;100386.98;;;22.16;63.69
3748;BME280;1889;50.058;8.688;2022-07-30T07:00:15;100393.80;;;21.92;64.23
3748;BME280;1889;50.058;8.688;2022-07-30T07:02:45;100395.80;;;22.04;64.22
3748;BME280;1889;50.058;8.688;2022-07-30T07:05:14;100392.74;;;22.24;63.46
3748;BME280;1889;50.058;8.688;2022-07-30T07:07:43;100397.39;;;21.99;63.16
3748;BME280;1889;50.058;8.688;2022-07-30T07:10:12;100399.71;;;21.83;63.96
3748;BME280;1889;50.058;8.688;2022-07-30T07:12:41;100396.19;;;22.12;63.50
3748;BME280;1889;50.058;8.688;2022-07-30T07:15:10;100392.91;;;22.07;63.62
3748;BME280;1889;50.058;8.688;2022-07-30T07:17:39;100398.99;;;21.95;63.98
3748;BME280;1889;50.058;8.688;2022-07-30T07:20:09;100393.63;;;21.88;63.42
3748;BME280;1889;50.058;8.688;2022-07-30T07:22:38;100392.17;;;22.19;62.68
3748;BME280;1889;50.058;8.688;2022-07-30T07:25:07;100393.22;;;22.38;62.23
3748;BME280;1889;50.058;8.688;2022-07-30T07:27:36;100397.53;;;22.55;61.46
3748;BME280;1889;50.058;8.688;2022-07-30T07:30:06;100398.50;;;22.68;60.79
3748;BME280;1889;50.058;8.688;2022-07-30T07:32:35;100390.83;;;22.26;59.02
3748;BME280;1889;50.058;8.688;2022-07-30T07:35:05;100391.61;;;22.42;59.47
3748;BME280;1889;50.058;8.688;2022-07-30T07:37:34;100400.80;;;22.67;58.57
3748;BME280;1889;50.058;8.688;2022-07-30T07:40:04;100392.57;;;22.70;58.73
3748;BME280;1889;50.058;8.688;2022-07-30T07:42:33;100393.52;;;22.90;58.71
3748;BME280;1889;50.058;8.688;2022-07-30T07:45:02;100393.15;;;22.82;58.45
3748;BME280;1889;50.058;8.688;2022-07-30T07:47:55;100393.00;;;23.05;57.86
3748;BME280;1889;50.058;8.688;2022-07-30T07:50:04;100396.31;;;23.23;56.84
3748;BME280;1889;50.058;8.688;2022-07-30T07:52:33;100392.33;;;23.35;56.07
3748;BME280;1889;50.058;8.688;2022-07-30T07:55:02;100388.88;;;23.06;55.26
3748;BME280;1889;50.058;8.688;2022-07-30T07:57:39;100386.53;;;23.21;55.42
3748;BME280;1889;50.058;8.688;2022-07-30T08:00:10;100391.88;;;23.29;54.23
3748;BME280;1889;50.058;8.688;2022-07-30T08:02:41;100391.53;;;23.47;53.37
3748;BME280;1889;50.058;8.688;2022-07-30T08:05:11;100391.53;;;23.47;53.37
3748;BME280;1889;50.058;8.688;2022-07-30T08:07:40;100394.59;;;23.21;52.70
3748;BME280;1889;50.058;8.688;2022-07-30T08:10:10;100395.05;;;23.28;53.26
3748;BME280;1889;50.058;8.688;2022-07-30T08:12:41;100392.84;;;23.35;52.82
3748;BME280;1889;50.058;8.688;2022-07-30T08:15:11;100392.84;;;23.35;52.82
3748;BME280;1889;50.058;8.688;2022-07-30T08:17:40;100397.80;;;23.41;52.29
3748;BME280;1889;50.058;8.688;2022-07-30T08:20:11;100399.76;;;23.78;51.62
3748;BME280;1889;50.058;8.688;2022-07-30T08:22:41;100399.76;;;23.78;51.62
3748;BME280;1889;50.058;8.688;2022-07-30T08:25:10;100401.56;;;23.65;51.04
3748;BME280;1889;50.058;8.688;2022-07-30T08:27:39;100400.55;;;23.46;51.64
3748;BME280;1889;50.058;8.688;2022-07-30T08:30:09;100406.11;;;23.57;51.10
3748;BME280;1889;50.058;8.688;2022-07-30T08:32:39;100404.70;;;23.72;50.61
3748;BME280;1889;50.058;8.688;2022-07-30T08:35:08;100399.61;;;23.74;50.59
3748;BME280;1889;50.058;8.688;2022-07-30T08:37:37;100403.84;;;24.04;49.93
3748;BME280;1889;50.058;8.688;2022-07-30T08:40:08;100403.84;;;24.04;49.93
3748;BME280;1889;50.058;8.688;2022-07-30T08:42:38;100402.98;;;24.23;49.40
3748;BME280;1889;50.058;8.688;2022-07-30T08:45:08;100400.67;;;24.17;48.66
3748;BME280;1889;50.058;8.688;2022-07-30T08:47:40;100400.67;;;24.17;48.66
3748;BME280;1889;50.058;8.688;2022-07-30T08:50:10;100404.33;;;24.36;48.40
3748;BME280;1889;50.058;8.688;2022-07-30T08:52:41;100399.30;;;24.49;48.28
3748;BME280;1889;50.058;8.688;2022-07-30T08:55:10;100398.18;;;24.33;48.24
3748;BME280;1889;50.058;8.688;2022-07-30T08:57:39;100402.38;;;24.50;48.31
3748;BME280;1889;50.058;8.688;2022-07-30T09:00:09;100393.77;;;24.32;47.87
3748;BME280;1889;50.058;8.688;2022-07-30T09:02:39;100399.52;;;24.33;48.13
3748;BME280;1889;50.058;8.688;2022-07-30T09:05:09;100394.59;;;24.40;47.71
3748;BME280;1889;50.058;8.688;2022-07-30T09:07:39;100395.43;;;24.41;46.80
3748;BME280;1889;50.058;8.688;2022-07-30T09:10:09;100400.83;;;24.28;46.96
3748;BME280;1889;50.058;8.688;2022-07-30T09:12:42;100397.59;;;24.36;46.53
3748;BME280;1889;50.058;8.688;2022-07-30T09:15:16;100399.20;;;24.63;46.19
3748;BME280;1889;50.058;8.688;2022-07-30T09:20:24;100399.27;;;24.56;45.37
3748;BME280;1889;50.058;8.688;2022-07-30T09:22:56;100397.34;;;24.77;45.02
3748;BME280;1889;50.058;8.688;2022-07-30T09:25:40;100398.99;;;24.85;45.16
3748;BME280;1889;50.058;8.688;2022-07-30T09:28:11;100399.71;;;24.94;44.90
3748;BME280;1889;50.058;8.688;2022-07-30T09:30:51;100399.71;;;24.94;44.90
3748;BME280;1889;50.058;8.688;2022-07-30T09:33:29;100397.18;;;25.22;44.13
3748;BME280;1889;50.058;8.688;2022-07-30T09:35:52;100398.64;;;24.96;43.04
3748;BME280;1889;50.058;8.688;2022-07-30T09:38:19;100400.80;;;24.66;42.74
3748;BME280;1889;50.058;8.688;2022-07-30T09:40:51;100396.06;;;24.57;42.62
3748;BME280;1889;50.058;8.688;2022-07-30T09:43:20;100397.33;;;24.46;42.74
3748;BME280;1889;50.058;8.688;2022-07-30T09:45:52;100397.02;;;24.38;42.84
3748;BME280;1889;50.058;8.688;2022-07-30T09:48:24;100393.66;;;24.34;42.81
3748;BME280;1889;50.058;8.688;2022-07-30T09:50:54;100392.37;;;24.52;43.13
3748;BME280;1889;50.058;8.688;2022-07-30T09:53:23;100392.30;;;24.72;42.81
3748;BME280;1889;50.058;8.688;2022-07-30T09:55:53;100392.52;;;25.00;42.20
3748;BME280;1889;50.058;8.688;2022-07-30T09:58:23;100395.12;;;24.89;39.15
3748;BME280;1889;50.058;8.688;2022-07-30T10:00:56;100392.90;;;25.01;40.07
3748;BME280;1889;50.058;8.688;2022-07-30T10:03:29;100387.55;;;25.30;40.43
3748;BME280;1889;50.058;8.688;2022-07-30T10:05:59;100398.29;;;25.19;39.17
3748;BME280;1889;50.058;8.688;2022-07-30T10:08:40;100399.26;;;25.18;39.59
3748;BME280;1889;50.058;8.688;2022-07-30T10:11:12;100400.63;;;25.05;39.82
3748;BME280;1889;50.058;8.688;2022-07-30T10:13:42;100400.52;;;25.07;40.33
3748;BME280;1889;50.058;8.688;2022-07-30T10:16:11;100403.89;;;25.16;40.41
3748;BME280;1889;50.058;8.688;2022-07-30T10:18:41;100392.64;;;25.40;40.06
3748;BME280;1889;50.058;8.688;2022-07-30T10:21:12;100393.30;;;25.50;39.88
3748;BME280;1889;50.058;8.688;2022-07-30T10:23:41;100387.53;;;25.25;39.58
3748;BME280;1889;50.058;8.688;2022-07-30T10:26:10;100386.67;;;25.48;39.54
3748;BME280;1889;50.058;8.688;2022-07-30T10:28:41;100385.01;;;25.58;39.66
3748;BME280;1889;50.058;8.688;2022-07-30T10:31:10;100379.23;;;25.57;39.33
3748;BME280;1889;50.058;8.688;2022-07-30T10:33:40;100385.41;;;25.59;39.44
3748;BME280;1889;50.058;8.688;2022-07-30T10:36:12;100382.98;;;25.43;38.94
3748;BME280;1889;50.058;8.688;2022-07-30T10:38:42;100385.09;;;25.45;39.13
3748;BME280;1889;50.058;8.688;2022-07-30T10:41:47;100386.96;;;25.32;38.69
3748;BME280;1889;50.058;8.688;2022-07-30T10:44:39;100381.57;;;25.32;39.29
3748;BME280;1889;50.058;8.688;2022-07-30T10:47:07;100386.05;;;25.44;39.14
3748;BME280;1889;50.058;8.688;2022-07-30T10:49:36;100388.12;;;25.46;39.48
3748;BME280;1889;50.058;8.688;2022-07-30T10:52:06;100383.77;;;25.57;39.61
3748;BME280;1889;50.058;8.688;2022-07-30T10:54:42;100375.38;;;25.61;39.57
3748;BME280;1889;50.058;8.688;2022-07-30T10:57:19;100381.27;;;25.66;39.36
3748;BME280;1889;50.058;8.688;2022-07-30T11:02:27;100381.23;;;25.90;39.68
3748;BME280;1889;50.058;8.688;2022-07-30T11:07:49;100377.30;;;25.89;39.09
3748;BME280;1889;50.058;8.688;2022-07-30T11:10:38;100366.58;;;26.16;39.48
3748;BME280;1889;50.058;8.688;2022-07-30T11:13:09;100371.53;;;26.45;39.25
3748;BME280;1889;50.058;8.688;2022-07-30T11:15:57;100376.31;;;26.69;38.92
3748;BME280;1889;50.058;8.688;2022-07-30T11:18:27;100372.98;;;26.88;38.62
3748;BME280;1889;50.058;8.688;2022-07-30T11:21:15;100373.73;;;26.90;38.16
3748;BME280;1889;50.058;8.688;2022-07-30T11:23:45;100373.86;;;27.05;38.31
3748;BME280;1889;50.058;8.688;2022-07-30T11:31:57;100367.23;;;26.92;36.82
3748;BME280;1889;50.058;8.688;2022-07-30T11:34:28;100355.66;;;27.13;36.94
3748;BME280;1889;50.058;8.688;2022-07-30T11:42:31;100361.50;;;27.29;35.98
3748;BME280;1889;50.058;8.688;2022-07-30T11:47:50;100343.64;;;26.89;35.63
3748;BME280;1889;50.058;8.688;2022-07-30T11:50:25;100346.02;;;27.25;35.55
3748;BME280;1889;50.058;8.688;2022-07-30T11:52:59;100350.88;;;27.54;35.59
3748;BME280;1889;50.058;8.688;2022-07-30T11:55:37;100349.15;;;27.79;34.90
3748;BME280;1889;50.058;8.688;2022-07-30T11:58:27;100345.07;;;28.00;34.46
3748;BME280;1889;50.058;8.688;2022-07-30T12:01:03;100343.48;;;27.97;34.55
3748;BME280;1889;50.058;8.688;2022-07-30T12:03:29;100345.89;;;28.06;34.54
3748;BME280;1889;50.058;8.688;2022-07-30T12:06:05;100351.33;;;28.27;34.29
3748;BME280;1889;50.058;8.688;2022-07-30T12:08:40;100345.48;;;28.16;34.02
3748;BME280;1889;50.058;8.688;2022-07-30T12:11:10;100342.67;;;28.12;33.70
3748;BME280;1889;50.058;8.688;2022-07-30T12:13:40;100353.28;;;27.89;33.18
3748;BME280;1889;50.058;8.688;2022-07-30T12:16:13;100341.00;;;27.58;33.44
3748;BME280;1889;50.058;8.688;2022-07-30T12:18:45;100351.55;;;27.29;32.94
3748;BME280;1889;50.058;8.688;2022-07-30T12:21:14;100341.59;;;27.30;33.67
3748;BME280;1889;50.058;8.688;2022-07-30T12:24:00;100352.72;;;27.53;33.05
3748;BME280;1889;50.058;8.688;2022-07-30T12:26:32;100342.19;;;27.65;33.28
3748;BME280;1889;50.058;8.688;2022-07-30T12:29:06;100331.17;;;27.99;32.36
3748;BME280;1889;50.058;8.688;2022-07-30T12:31:37;100342.38;;;28.15;32.53
3748;BME280;1889;50.058;8.688;2022-07-30T12:34:22;100340.19;;;28.35;32.31
3748;BME280;1889;50.058;8.688;2022-07-30T12:36:51;100336.48;;;28.52;32.05
3748;BME280;1889;50.058;8.688;2022-07-30T12:39:25;100340.53;;;28.82;30.93
3748;BME280;1889;50.058;8.688;2022-07-30T12:41:54;100334.80;;;28.60;31.61
3748;BME280;1889;50.058;8.688;2022-07-30T12:44:34;100339.41;;;28.84;31.46
3748;BME280;1889;50.058;8.688;2022-07-30T12:47:05;100334.17;;;28.32;31.25
3748;BME280;1889;50.058;8.688;2022-07-30T12:49:34;100336.16;;;28.60;31.89
3748;BME280;1889;50.058;8.688;2022-07-30T12:52:04;100331.41;;;28.83;31.46
3748;BME280;1889;50.058;8.688;2022-07-30T12:54:33;100318.64;;;28.89;30.43
3748;BME280;1889;50.058;8.688;2022-07-30T12:57:04;100324.83;;;28.76;30.87
3748;BME280;1889;50.058;8.688;2022-07-30T12:59:33;100319.59;;;29.03;30.73
3748;BME280;1889;50.058;8.688;2022-07-30T13:02:02;100319.44;;;28.86;30.83
3748;BME280;1889;50.058;8.688;2022-07-30T13:04:31;100315.30;;;28.91;31.09
3748;BME280;1889;50.058;8.688;2022-07-30T13:07:05;100313.76;;;29.27;31.06
3748;BME280;1889;50.058;8.688;2022-07-30T13:09:35;100315.58;;;29.61;30.68
3748;BME280;1889;50.058;8.688;2022-07-30T13:12:04;100316.43;;;29.62;29.03
3748;BME280;1889;50.058;8.688;2022-07-30T13:14:33;100309.51;;;29.63;29.56
3748;BME280;1889;50.058;8.688;2022-07-30T13:17:02;100299.19;;;29.76;29.62
3748;BME280;1889;50.058;8.688;2022-07-30T13:19:32;100305.84;;;29.78;29.39
3748;BME280;1889;50.058;8.688;2022-07-30T13:22:01;100312.23;;;29.53;28.61
3748;BME280;1889;50.058;8.688;2022-07-30T13:24:30;100320.17;;;29.07;29.06
3748;BME280;1889;50.058;8.688;2022-07-30T13:27:00;100310.51;;;28.89;29.41
3748;BME280;1889;50.058;8.688;2022-07-30T13:29:29;100313.97;;;29.20;29.24
3748;BME280;1889;50.058;8.688;2022-07-30T13:31:58;100318.05;;;29.10;29.04
3748;BME280;1889;50.058;8.688;2022-07-30T13:34:27;100309.97;;;29.05;28.92
3748;BME280;1889;50.058;8.688;2022-07-30T13:36:56;100309.45;;;28.86;29.48
3748;BME280;1889;50.058;8.688;2022-07-30T13:39:25;100309.31;;;28.97;29.28
3748;BME280;1889;50.058;8.688;2022-07-30T13:41:55;100308.77;;;28.78;29.92
3748;BME280;1889;50.058;8.688;2022-07-30T13:44:24;100310.88;;;28.90;29.71
3748;BME280;1889;50.058;8.688;2022-07-30T13:46:53;100307.34;;;28.59;29.52
3748;BME280;1889;50.058;8.688;2022-07-30T13:49:22;100313.64;;;28.44;29.60
3748;BME280;1889;50.058;8.688;2022-07-30T13:51:51;100317.06;;;28.16;29.93